Time;durP1;ratioP1;P1;durP2;ratioP2;P2;SDS_P1;SDS_P2;PMS_P1;PMS_P2;Temp;Humidity;BMP_temperature;BMP_pressure;BME280_temperature;BME280_humidity;BME280_pressure;Samples;Min_cycle;Max_cycle;Signal;HPM_P1;HPM_P2
2023/08/03 00:00:12;;;;;;;1.77;0.80;;;;;;;15.49;100.00;98468.31;677384;29;1854;-72
2023/08/03 00:00:35;;;;;;;2.03;0.80;;;;;;;15.51;100.00;98474.34;679502;29;1421;-67
2023/08/03 00:00:55;;;;;;;2.40;0.90;;;;;;;15.55;100.00;98465.31;677524;29;4481;-71
2023/08/03 00:01:16;;;;;;;3.13;1.00;;;;;;;15.55;100.00;98473.22;677349;29;1608;-69
2023/08/03 00:01:36;;;;;;;4.13;1.02;;;;;;;15.56;100.00;98479.31;679742;29;1477;-71
2023/08/03 00:01:56;;;;;;;3.43;0.93;;;;;;;15.62;100.00;98471.06;680994;28;1858;-69
2023/08/03 00:02:17;;;;;;;1.92;0.90;;;;;;;15.60;100.00;98472.94;679832;28;1744;-69
2023/08/03 00:02:37;;;;;;;2.43;0.87;;;;;;;15.58;100.00;98473.03;680968;28;1628;-69
2023/08/03 00:02:58;;;;;;;3.50;1.00;;;;;;;15.53;100.00;98471.63;680604;28;1655;-69
2023/08/03 00:03:18;;;;;;;2.45;1.08;;;;;;;15.50;100.00;98468.22;678224;29;1770;-69
2023/08/03 00:03:38;;;;;;;2.63;1.10;;;;;;;15.57;100.00;98462.59;677120;29;1418;-67
2023/08/03 00:04:00;;;;;;;1.92;0.90;;;;;;;15.53;100.00;98477.72;676549;29;4507;-69
2023/08/03 00:04:21;;;;;;;3.22;1.10;;;;;;;15.60;100.00;98462.41;676580;29;1955;-67
2023/08/03 00:04:41;;;;;;;2.90;1.20;;;;;;;15.63;100.00;98472.75;676940;29;1422;-69
2023/08/03 00:05:02;;;;;;;2.97;1.00;;;;;;;15.63;100.00;98473.63;676275;29;1509;-68
2023/08/03 00:05:24;;;;;;;2.67;1.00;;;;;;;15.57;100.00;98467.88;678943;29;1347;-65
2023/08/03 00:05:44;;;;;;;2.30;0.90;;;;;;;15.54;100.00;98463.63;679183;29;1561;-67
2023/08/03 00:06:04;;;;;;;2.43;0.90;;;;;;;15.54;100.00;98466.25;678166;29;1896;-68
2023/08/03 00:06:25;;;;;;;2.50;0.90;;;;;;;15.52;100.00;98478.69;679107;29;1473;-69
2023/08/03 00:06:46;;;;;;;2.65;1.08;;;;;;;15.47;100.00;98472.84;678219;29;4553;-68
2023/08/03 00:07:06;;;;;;;2.73;0.90;;;;;;;15.48;100.00;98462.22;677242;29;1378;-68
2023/08/03 00:07:27;;;;;;;3.97;1.00;;;;;;;15.50;100.00;98477.91;678394;29;1430;-69
2023/08/03 00:07:48;;;;;;;3.03;1.00;;;;;;;15.46;100.00;98471.97;678153;29;1248;-67
2023/08/03 00:08:08;;;;;;;2.45;1.00;;;;;;;15.46;100.00;98471.13;678681;29;1773;-70
2023/08/03 00:08:29;;;;;;;1.70;0.87;;;;;;;15.44;100.00;98465.97;678348;29;2031;-68
2023/08/03 00:08:49;;;;;;;1.80;0.90;;;;;;;15.48;100.00;98471.91;680406;29;1501;-68
2023/08/03 00:09:10;;;;;;;1.90;0.90;;;;;;;15.44;100.00;98470.41;679419;28;1478;-68
2023/08/03 00:09:30;;;;;;;1.70;0.90;;;;;;;15.45;100.00;98475.56;678816;29;1311;-68
2023/08/03 00:09:52;;;;;;;1.77;0.95;;;;;;;15.40;100.00;98466.25;678071;29;4605;-68
2023/08/03 00:10:13;;;;;;;3.08;0.98;;;;;;;15.42;100.00;98464.34;678004;29;1407;-68
2023/08/03 00:10:35;;;;;;;3.50;0.90;;;;;;;15.46;100.00;98457.97;679543;29;1636;-69
2023/08/03 00:10:55;;;;;;;3.60;0.90;;;;;;;15.50;100.00;98464.75;679227;29;1473;-68
2023/08/03 00:11:15;;;;;;;2.83;1.00;;;;;;;15.46;100.00;98464.06;678363;29;2175;-68
2023/08/03 00:11:36;;;;;;;2.43;1.00;;;;;;;15.44;100.00;98468.59;679185;29;1592;-69
2023/08/03 00:11:56;;;;;;;2.75;1.05;;;;;;;15.40;100.00;98467.09;679323;29;1607;-68
2023/08/03 00:12:18;;;;;;;2.70;1.07;;;;;;;15.38;100.00;98468.97;678036;29;1604;-67
2023/08/03 00:12:38;;;;;;;2.53;1.08;;;;;;;15.45;100.00;98472.94;676748;29;1700;-69
2023/08/03 00:12:59;;;;;;;2.03;1.00;;;;;;;15.50;100.00;98457.69;675257;29;4392;-68
2023/08/03 00:13:19;;;;;;;2.00;1.03;;;;;;;15.44;100.00;98454.59;676170;29;2784;-64
2023/08/03 00:13:39;;;;;;;2.63;1.10;;;;;;;15.41;100.00;98457.41;677414;29;1693;-66
2023/08/03 00:14:00;;;;;;;6.03;1.50;;;;;;;15.38;100.00;98457.59;677539;29;782;-67
2023/08/03 00:14:20;;;;;;;2.73;0.90;;;;;;;15.37;100.00;98459.38;679643;29;1422;-66
2023/08/03 00:14:41;;;;;;;1.33;0.90;;;;;;;15.36;100.00;98459.47;678506;29;1537;-68
2023/08/03 00:15:01;;;;;;;2.97;1.10;;;;;;;15.36;100.00;98464.75;677757;29;1855;-68
2023/08/03 00:15:22;;;;;;;2.03;1.00;;;;;;;15.40;100.00;98461.00;678728;29;1455;-67
2023/08/03 00:15:42;;;;;;;2.40;0.90;;;;;;;15.46;100.00;98457.97;678447;29;4755;-67
2023/08/03 00:16:02;;;;;;;2.10;0.80;;;;;;;15.50;100.00;98462.13;676186;29;1820;-66
2023/08/03 00:16:23;;;;;;;2.53;0.80;;;;;;;15.46;100.00;98461.44;677760;29;4308;-67
2023/08/03 00:16:43;;;;;;;3.40;0.97;;;;;;;15.45;100.00;98456.28;678624;29;1244;-67
2023/08/03 00:17:04;;;;;;;3.13;0.95;;;;;;;15.49;100.00;98452.50;676395;29;1727;-65
2023/08/03 00:17:24;;;;;;;3.47;1.00;;;;;;;15.49;100.00;98455.16;679982;29;936;-67
2023/08/03 00:17:45;;;;;;;1.77;0.80;;;;;;;15.43;100.00;98460.78;678344;29;1048;-65
2023/08/03 00:18:05;;;;;;;2.60;0.80;;;;;;;15.44;100.00;98462.50;678300;29;1863;-67
2023/08/03 00:18:25;;;;;;;2.88;0.80;;;;;;;15.55;100.00;98457.44;679487;29;1525;-64
2023/08/03 00:18:46;;;;;;;1.97;0.80;;;;;;;15.48;100.00;98464.84;679220;28;4322;-65
2023/08/03 00:19:07;;;;;;;2.10;0.88;;;;;;;15.57;100.00;98458.16;679721;28;2490;-65
2023/08/03 00:19:27;;;;;;;2.20;0.82;;;;;;;15.55;100.00;98460.06;681118;28;976;-66
2023/08/03 00:19:48;;;;;;;2.53;0.80;;;;;;;15.52;100.00;98457.63;682159;29;857;-67
2023/08/03 00:20:08;;;;;;;2.40;0.90;;;;;;;15.59;100.00;98453.66;679410;28;1816;-65
2023/08/03 00:20:29;;;;;;;3.27;1.10;;;;;;;15.56;100.00;98455.63;680630;29;929;-65
2023/08/03 00:20:50;;;;;;;2.27;0.97;;;;;;;15.50;100.00;98462.94;681065;29;798;-66
2023/08/03 00:21:10;;;;;;;3.17;0.90;;;;;;;15.47;100.00;98457.03;678061;29;1551;-66
2023/08/03 00:21:31;;;;;;;2.70;1.00;;;;;;;15.54;100.00;98458.34;679432;29;1356;-65
2023/08/03 00:21:51;;;;;;;2.88;1.20;;;;;;;15.52;100.00;98462.88;680182;29;4400;-66
2023/08/03 00:22:11;;;;;;;2.83;1.10;;;;;;;15.55;100.00;98460.06;679989;28;1539;-66
2023/08/03 00:22:32;;;;;;;1.40;0.80;;;;;;;15.50;100.00;98457.69;680520;29;1359;-65
2023/08/03 00:22:53;;;;;;;1.58;0.70;;;;;;;15.49;100.00;98460.41;681207;28;1463;-65
2023/08/03 00:23:13;;;;;;;2.40;0.83;;;;;;;15.46;100.00;98452.72;680348;29;985;-71
2023/08/03 00:23:34;;;;;;;2.10;0.98;;;;;;;15.44;100.00;98459.88;680458;29;834;-68
2023/08/03 00:23:54;;;;;;;3.67;0.80;;;;;;;15.53;100.00;98456.66;678216;29;898;-66
2023/08/03 00:24:15;;;;;;;2.42;1.02;;;;;;;15.57;100.00;98452.91;678332;29;1687;-66
2023/08/03 00:24:36;;;;;;;2.67;1.17;;;;;;;15.62;100.00;98455.28;678540;29;1533;-64
2023/08/03 00:24:58;;;;;;;2.13;0.80;;;;;;;15.64;100.00;98456.00;677861;28;4928;-65
2023/08/03 00:25:18;;;;;;;1.27;0.70;;;;;;;15.57;100.00;98454.69;678151;29;1943;-66
2023/08/03 00:25:38;;;;;;;1.60;0.77;;;;;;;15.61;100.00;98445.66;678224;29;841;-65
2023/08/03 00:25:59;;;;;;;2.30;0.90;;;;;;;15.63;100.00;98451.69;678548;29;968;-66
2023/08/03 00:26:19;;;;;;;2.13;0.98;;;;;;;15.58;100.00;98453.75;677417;29;1703;-66
2023/08/03 00:26:40;;;;;;;1.77;0.90;;;;;;;15.52;100.00;98454.97;681067;28;1425;-66
2023/08/03 00:27:00;;;;;;;1.97;0.90;;;;;;;15.41;100.00;98444.22;679051;29;1347;-63
2023/08/03 00:27:23;;;;;;;3.83;1.05;;;;;;;15.42;100.00;98454.66;677387;29;1257;-65
2023/08/03 00:27:43;;;;;;;3.75;0.90;;;;;;;15.39;100.00;98454.03;677246;29;4460;-65
2023/08/03 00:28:03;;;;;;;3.05;0.70;;;;;;;15.34;100.00;98454.31;677143;29;2379;-66
2023/08/03 00:28:24;;;;;;;2.43;0.70;;;;;;;15.40;100.00;98450.47;676757;29;1977;-68
2023/08/03 00:28:44;;;;;;;1.60;0.70;;;;;;;15.50;100.00;98454.22;676906;29;937;-66
2023/08/03 00:29:05;;;;;;;1.50;0.70;;;;;;;15.49;100.00;98463.03;675608;29;2502;-66
2023/08/03 00:29:25;;;;;;;1.65;0.80;;;;;;;15.47;100.00;98465.78;676630;29;1576;-67
2023/08/03 00:29:46;;;;;;;1.73;0.90;;;;;;;15.51;100.00;98458.56;678068;29;1308;-65
2023/08/03 00:30:06;;;;;;;1.90;0.73;;;;;;;15.50;100.00;98464.75;673727;29;1911;-64
2023/08/03 00:30:27;;;;;;;1.97;0.73;;;;;;;15.62;100.00;98450.84;675398;29;1444;-64
2023/08/03 00:30:47;;;;;;;2.00;0.80;;;;;;;15.61;100.00;98459.69;676084;29;5224;-65
2023/08/03 00:31:07;;;;;;;2.13;0.70;;;;;;;15.65;100.00;98466.44;677537;29;1816;-63
2023/08/03 00:31:28;;;;;;;2.70;0.70;;;;;;;15.56;100.00;98448.59;678887;29;1399;-65
2023/08/03 00:31:48;;;;;;;2.20;0.80;;;;;;;15.54;100.00;98457.53;676714;29;839;-67
2023/08/03 00:32:09;;;;;;;1.75;0.80;;;;;;;15.57;100.00;98450.25;677186;29;2457;-65
2023/08/03 00:32:30;;;;;;;1.20;0.70;;;;;;;15.54;100.00;98457.53;675486;29;1391;-65
2023/08/03 00:32:53;;;;;;;3.23;1.10;;;;;;;15.55;100.00;98462.69;675781;29;961;-64
2023/08/03 00:33:13;;;;;;;2.85;1.08;;;;;;;15.52;100.00;98462.88;678589;29;2025;-65
2023/08/03 00:33:33;;;;;;;1.30;0.70;;;;;;;15.55;100.00;98464.47;677953;29;905;-65
2023/08/03 00:33:54;;;;;;;1.65;0.70;;;;;;;15.53;100.00;98454.03;677537;28;4576;-65
2023/08/03 00:34:17;;;;;;;2.97;1.07;;;;;;;15.55;100.00;98452.16;677473;29;2132;-63
2023/08/03 00:34:38;;;;;;;2.70;1.10;;;;;;;15.60;100.00;98450.09;677841;29;1108;-64
2023/08/03 00:34:58;;;;;;;2.40;1.07;;;;;;;15.61;100.00;98459.69;676565;29;1322;-65
2023/08/03 00:35:18;;;;;;;2.20;0.80;;;;;;;15.66;100.00;98464.69;676809;29;1777;-66
2023/08/03 00:35:39;;;;;;;2.00;0.70;;;;;;;15.63;100.00;98451.69;680435;29;1273;-66
2023/08/03 00:36:00;;;;;;;2.75;0.85;;;;;;;15.62;100.00;98460.53;679219;28;1896;-66
2023/08/03 00:36:20;;;;;;;2.03;0.80;;;;;;;15.69;100.00;98455.72;677626;29;2591;-66
2023/08/03 00:36:40;;;;;;;1.83;0.80;;;;;;;15.66;100.00;98460.25;678306;29;885;-66
2023/08/03 00:37:01;;;;;;;1.73;0.70;;;;;;;15.62;100.00;98466.66;676754;29;4609;-65
2023/08/03 00:37:22;;;;;;;2.40;0.80;;;;;;;15.62;100.00;98457.91;676930;29;1434;-65
2023/08/03 00:37:42;;;;;;;2.03;0.80;;;;;;;15.69;100.00;98459.22;675546;29;2307;-65
2023/08/03 00:38:02;;;;;;;1.83;0.70;;;;;;;15.66;100.00;98468.16;676922;29;2358;-64
2023/08/03 00:38:23;;;;;;;2.17;0.87;;;;;;;15.64;100.00;98456.84;679246;29;932;-66
2023/08/03 00:38:43;;;;;;;1.52;0.73;;;;;;;15.68;100.00;98462.78;677948;29;5458;-65
2023/08/03 00:39:04;;;;;;;1.83;0.70;;;;;;;15.60;100.00;98470.31;676393;29;1586;-67
2023/08/03 00:39:25;;;;;;;2.00;0.75;;;;;;;15.64;100.00;98463.91;680409;29;747;-66
2023/08/03 00:39:46;;;;;;;1.90;0.80;;;;;;;15.60;100.00;98470.31;680870;28;4392;-65
2023/08/03 00:40:07;;;;;;;1.90;0.77;;;;;;;15.64;100.00;98464.75;677879;29;2396;-66
2023/08/03 00:40:28;;;;;;;2.40;0.80;;;;;;;15.58;100.00;98457.22;679313;29;1459;-61
2023/08/03 00:40:52;;;;;;;2.20;0.90;;;;;;;15.53;100.00;98464.56;676820;29;1205;-64
2023/08/03 00:41:12;;;;;;;2.45;1.00;;;;;;;15.57;100.00;98471.34;671219;29;2021;-65
2023/08/03 00:41:33;;;;;;;1.88;1.00;;;;;;;15.56;100.00;98466.16;669877;29;1174;-65
2023/08/03 00:41:53;;;;;;;1.00;0.80;;;;;;;15.60;100.00;98467.66;670438;29;811;-65
2023/08/03 00:42:14;;;;;;;1.52;0.77;;;;;;;15.64;100.00;98467.38;669610;29;2621;-66
2023/08/03 00:42:34;;;;;;;2.00;0.90;;;;;;;15.71;100.00;98464.38;670671;29;922;-66
2023/08/03 00:42:55;;;;;;;2.50;0.70;;;;;;;15.69;100.00;98466.25;672910;29;4657;-65
2023/08/03 00:43:15;;;;;;;2.22;0.75;;;;;;;15.72;100.00;98463.47;672405;29;2307;-65
2023/08/03 00:43:36;;;;;;;1.63;0.70;;;;;;;15.71;100.00;98459.13;675913;29;1426;-68
2023/08/03 00:44:00;;;;;;;1.27;0.70;;;;;;;15.75;100.00;98460.63;676113;29;1211;-66
2023/08/03 00:44:20;;;;;;;1.67;0.85;;;;;;;15.73;100.00;98470.41;675469;29;1749;-66
2023/08/03 00:44:41;;;;;;;3.67;1.00;;;;;;;15.76;100.00;98473.69;676814;29;1039;-64
2023/08/03 00:45:01;;;;;;;3.50;0.80;;;;;;;15.75;100.00;98465.91;677320;29;1000;-64
2023/08/03 00:45:24;;;;;;;1.38;0.60;;;;;;;15.72;100.00;98476.63;678715;29;1461;-63
2023/08/03 00:45:44;;;;;;;2.25;0.80;;;;;;;15.68;100.00;98462.78;676166;29;4742;-64
2023/08/03 00:46:05;;;;;;;3.85;0.82;;;;;;;15.74;100.00;98462.44;676119;29;1459;-61
2023/08/03 00:46:25;;;;;;;2.43;0.80;;;;;;;15.70;100.00;98468.81;678114;29;964;-64
2023/08/03 00:46:45;;;;;;;1.77;0.90;;;;;;;15.68;100.00;98465.41;678561;29;1473;-64
2023/08/03 00:47:06;;;;;;;2.37;0.80;;;;;;;15.73;100.00;98468.63;677511;29;2428;-64
2023/08/03 00:47:27;;;;;;;1.95;0.70;;;;;;;15.75;100.00;98471.16;676173;29;1310;-63
2023/08/03 00:47:47;;;;;;;1.73;0.80;;;;;;;15.63;100.00;98473.63;676768;29;1216;-70
2023/08/03 00:48:08;;;;;;;1.70;0.60;;;;;;;15.71;100.00;98470.50;677573;29;1464;-65
2023/08/03 00:48:29;;;;;;;2.83;0.80;;;;;;;15.78;100.00;98471.84;678313;29;1914;-67
2023/08/03 00:48:49;;;;;;;2.45;0.68;;;;;;;15.81;100.00;98471.69;677293;29;4606;-63
2023/08/03 00:49:11;;;;;;;1.83;0.70;;;;;;;15.88;100.00;98473.91;677216;29;2343;-67
2023/08/03 00:49:31;;;;;;;0.80;0.60;;;;;;;15.85;100.00;98466.22;678897;29;904;-64
2023/08/03 00:49:52;;;;;;;1.30;0.80;;;;;;;15.81;100.00;98469.03;676789;29;1312;-68
2023/08/03 00:50:12;;;;;;;1.40;0.77;;;;;;;15.79;100.00;98468.28;677330;29;1458;-65
2023/08/03 00:50:33;;;;;;;1.70;0.70;;;;;;;15.85;100.00;98479.38;676134;29;1482;-66
2023/08/03 00:50:53;;;;;;;1.93;0.77;;;;;;;15.80;100.00;98480.50;676375;29;1156;-65
2023/08/03 00:51:13;;;;;;;1.43;0.80;;;;;;;15.75;100.00;98481.69;677851;29;1487;-66
2023/08/03 00:51:34;;;;;;;1.40;0.77;;;;;;;15.83;100.00;98482.13;676479;29;882;-66
2023/08/03 00:51:55;;;;;;;1.73;0.70;;;;;;;15.83;100.00;98479.47;673448;29;4398;-63
2023/08/03 00:52:15;;;;;;;1.80;0.63;;;;;;;15.82;100.00;98473.38;669821;29;1833;-62
2023/08/03 00:52:38;;;;;;;1.80;0.68;;;;;;;15.89;100.00;98473.81;671590;29;1180;-65
2023/08/03 00:52:58;;;;;;;1.88;0.80;;;;;;;15.78;100.00;98474.47;670729;29;1126;-66
2023/08/03 00:53:19;;;;;;;2.03;0.80;;;;;;;15.76;100.00;98475.50;672068;29;1913;-67
2023/08/03 00:53:40;;;;;;;1.57;0.67;;;;;;;15.72;100.00;98477.47;671819;29;988;-68
2023/08/03 00:54:02;;;;;;;1.45;0.70;;;;;;;15.75;100.00;98466.72;672284;29;1587;-66
2023/08/03 00:54:23;;;;;;;1.73;0.70;;;;;;;15.81;100.00;98479.56;671736;29;846;-68
2023/08/03 00:54:43;;;;;;;1.70;0.70;;;;;;;15.76;100.00;98472.88;670909;29;4752;-62
2023/08/03 00:55:06;;;;;;;1.20;0.77;;;;;;;15.78;100.00;98468.34;669249;29;2226;-67
2023/08/03 00:55:26;;;;;;;2.37;0.73;;;;;;;15.77;100.00;98485.06;674190;29;1492;-65
2023/08/03 00:55:46;;;;;;;1.57;0.63;;;;;;;15.78;100.00;98474.47;678096;29;1540;-66
2023/08/03 00:56:07;;;;;;;1.80;0.70;;;;;;;15.85;100.00;98496.03;677824;29;1745;-64
2023/08/03 00:56:27;;;;;;;1.70;0.70;;;;;;;15.88;100.00;98474.78;679742;29;861;-63
2023/08/03 00:56:48;;;;;;;1.33;0.60;;;;;;;15.88;100.00;98485.31;679677;29;1035;-64
2023/08/03 00:57:08;;;;;;;1.20;0.68;;;;;;;15.95;100.00;98476.09;677199;29;1545;-64
2023/08/03 00:57:29;;;;;;;1.70;0.80;;;;;;;15.92;100.00;98484.19;677909;29;1091;-64
2023/08/03 00:57:49;;;;;;;1.52;0.75;;;;;;;15.93;100.00;98485.03;675723;29;4479;-63
2023/08/03 00:58:10;;;;;;;1.17;0.67;;;;;;;15.94;100.00;98492.00;673926;29;2472;-65
2023/08/03 00:58:30;;;;;;;1.40;0.70;;;;;;;15.91;100.00;98476.34;673625;29;1479;-65
2023/08/03 00:58:51;;;;;;;0.80;0.70;;;;;;;15.96;100.00;98484.84;669834;29;766;-66
2023/08/03 00:59:11;;;;;;;2.25;0.80;;;;;;;15.95;100.00;98489.25;672130;29;1494;-67
2023/08/03 00:59:32;;;;;;;2.17;0.70;;;;;;;15.88;100.00;98485.31;674420;29;894;-65
2023/08/03 00:59:53;;;;;;;2.33;0.70;;;;;;;15.89;100.00;98481.72;676068;29;1576;-65
2023/08/03 01:00:14;;;;;;;1.90;0.60;;;;;;;15.89;100.00;98473.81;673893;29;1956;-64
2023/08/03 01:00:35;;;;;;;1.93;0.70;;;;;;;15.84;100.00;98497.00;678264;29;849;-64
2023/08/03 01:00:55;;;;;;;2.47;0.90;;;;;;;15.89;100.00;98484.34;678386;29;5305;-66
2023/08/03 01:01:15;;;;;;;1.70;0.80;;;;;;;15.90;100.00;98479.97;674955;29;1478;-67
2023/08/03 01:01:37;;;;;;;1.58;0.60;;;;;;;15.81;100.00;98481.34;675528;29;980;-67
2023/08/03 01:01:57;;;;;;;1.48;0.70;;;;;;;15.82;100.00;98485.69;671191;29;1577;-67
2023/08/03 01:02:17;;;;;;;2.30;0.83;;;;;;;15.83;100.00;98479.47;670265;29;2313;-65
2023/08/03 01:02:38;;;;;;;1.73;0.80;;;;;;;15.82;100.00;98473.38;673139;29;1181;-61
2023/08/03 01:02:58;;;;;;;1.87;0.80;;;;;;;15.88;100.00;98492.34;672391;29;1148;-63
2023/08/03 01:03:19;;;;;;;1.73;0.80;;;;;;;15.97;100.00;98486.53;674500;29;1707;-61
2023/08/03 01:03:41;;;;;;;1.47;0.70;;;;;;;16.05;100.00;98493.94;674705;29;863;-67
2023/08/03 01:04:02;;;;;;;1.35;0.80;;;;;;;16.05;100.00;98493.94;673478;29;7430;-64
2023/08/03 01:04:22;;;;;;;1.73;0.73;;;;;;;16.04;100.00;98487.00;673535;29;2025;-65
2023/08/03 01:04:43;;;;;;;2.15;0.77;;;;;;;16.05;100.00;98504.50;675717;29;1446;-67
2023/08/03 01:05:03;;;;;;;1.70;0.70;;;;;;;16.06;100.00;98496.50;675912;29;873;-65
2023/08/03 01:05:25;;;;;;;2.05;0.70;;;;;;;16.06;100.00;98496.50;677460;29;913;-65
2023/08/03 01:05:46;;;;;;;3.63;0.70;;;;;;;15.95;100.00;98486.63;678262;29;1191;-66
2023/08/03 01:06:06;;;;;;;2.42;0.73;;;;;;;15.96;100.00;98490.09;676775;29;2422;-65
2023/08/03 01:06:27;;;;;;;1.70;0.80;;;;;;;15.91;100.00;98495.66;678262;29;1471;-68
2023/08/03 01:06:50;;;;;;;3.42;0.80;;;;;;;16.02;100.00;98488.88;678907;28;4373;-67
2023/08/03 01:07:11;;;;;;;1.65;0.90;;;;;;;16.00;100.00;98492.47;677183;29;2326;-65
2023/08/03 01:07:34;;;;;;;1.48;0.90;;;;;;;16.02;100.00;98491.50;678710;29;1469;-66
2023/08/03 01:07:55;;;;;;;0.88;0.73;;;;;;;16.00;100.00;98497.75;677973;29;1555;-66
2023/08/03 01:08:15;;;;;;;1.70;0.73;;;;;;;16.06;100.00;98493.88;678971;29;2168;-65
2023/08/03 01:08:36;;;;;;;1.90;0.70;;;;;;;16.10;100.00;98492.75;678520;29;1918;-67
2023/08/03 01:08:59;;;;;;;2.63;0.70;;;;;;;16.15;100.00;98500.34;677833;29;1320;-66
2023/08/03 01:09:19;;;;;;;2.90;0.80;;;;;;;16.14;100.00;98501.28;677799;29;2287;-65
2023/08/03 01:09:40;;;;;;;2.00;0.80;;;;;;;16.09;100.00;98495.44;679107;29;1064;-64
2023/08/03 01:10:01;;;;;;;2.43;0.77;;;;;;;16.07;100.00;98498.19;677740;29;4572;-66
2023/08/03 01:10:21;;;;;;;2.22;0.70;;;;;;;16.10;100.00;98502.44;677199;29;1310;-65
2023/08/03 01:10:42;;;;;;;1.95;0.75;;;;;;;16.09;100.00;98485.78;677632;29;921;-66
2023/08/03 01:11:03;;;;;;;3.03;0.88;;;;;;;16.07;100.00;98492.09;679033;29;1607;-66
2023/08/03 01:11:24;;;;;;;3.25;0.90;;;;;;;15.97;100.00;98505.81;679035;29;1091;-66
2023/08/03 01:11:46;;;;;;;2.27;0.80;;;;;;;15.91;100.00;98506.22;678003;29;913;-65
2023/08/03 01:12:06;;;;;;;1.27;0.70;;;;;;;15.87;100.00;98495.94;677177;29;2315;-66
2023/08/03 01:12:28;;;;;;;1.63;0.80;;;;;;;15.90;100.00;98504.50;677738;29;3762;-66
2023/08/03 01:12:51;;;;;;;2.03;0.80;;;;;;;15.92;100.00;98504.41;676856;29;4420;-67
2023/08/03 01:13:12;;;;;;;2.28;0.80;;;;;;;15.96;100.00;98490.97;676988;29;2069;-66
2023/08/03 01:13:32;;;;;;;2.13;0.70;;;;;;;15.93;100.00;98501.69;678688;29;1359;-65
2023/08/03 01:13:53;;;;;;;2.00;0.70;;;;;;;15.96;100.00;98496.25;678619;29;957;-66
2023/08/03 01:14:14;;;;;;;1.35;0.70;;;;;;;15.95;100.00;98505.06;674667;29;1711;-65
2023/08/03 01:14:35;;;;;;;1.00;0.70;;;;;;;15.88;100.00;98500.25;676125;29;1306;-65
2023/08/03 01:14:55;;;;;;;1.98;0.75;;;;;;;15.90;100.00;98501.88;673611;29;1229;-65
2023/08/03 01:15:16;;;;;;;2.63;0.90;;;;;;;15.85;100.00;98503.94;668606;29;1143;-67
2023/08/03 01:15:38;;;;;;;2.97;0.75;;;;;;;15.82;100.00;98498.84;671192;29;1534;-65
2023/08/03 01:16:00;;;;;;;1.63;0.80;;;;;;;15.85;100.00;98501.28;671722;29;4460;-66
2023/08/03 01:16:21;;;;;;;1.58;0.80;;;;;;;15.90;100.00;98511.56;672039;29;1562;-65
2023/08/03 01:16:41;;;;;;;2.60;0.90;;;;;;;15.92;100.00;98518.44;669912;29;1658;-65
2023/08/03 01:17:02;;;;;;;2.23;0.90;;;;;;;15.98;100.00;98491.72;672238;29;1206;-64
2023/08/03 01:17:22;;;;;;;1.67;0.70;;;;;;;16.00;100.00;98500.38;670381;29;2331;-69
2023/08/03 01:17:42;;;;;;;2.90;0.87;;;;;;;16.03;100.00;98501.13;671899;29;968;-65
2023/08/03 01:18:03;;;;;;;1.43;0.73;;;;;;;16.08;100.00;98509.59;674003;29;1036;-64
2023/08/03 01:18:23;;;;;;;1.60;0.80;;;;;;;16.17;100.00;98509.00;673531;29;1340;-62
2023/08/03 01:18:44;;;;;;;2.17;0.70;;;;;;;16.17;100.00;98509.00;676546;29;4467;-63
2023/08/03 01:19:05;;;;;;;1.75;0.75;;;;;;;16.21;100.00;98505.22;676541;29;2457;-64
2023/08/03 01:19:25;;;;;;;2.38;0.82;;;;;;;16.28;100.00;98511.84;679059;29;905;-65
2023/08/03 01:19:45;;;;;;;1.97;0.70;;;;;;;16.31;100.00;98514.28;679593;29;1312;-66
2023/08/03 01:20:06;;;;;;;4.28;0.82;;;;;;;16.27;100.00;98507.50;677998;29;2257;-64
2023/08/03 01:20:27;;;;;;;4.97;1.00;;;;;;;16.20;100.00;98515.88;679090;29;1417;-65
2023/08/03 01:20:49;;;;;;;2.60;0.80;;;;;;;16.21;100.00;98507.88;679691;29;905;-66
2023/08/03 01:21:11;;;;;;;2.30;0.80;;;;;;;16.20;100.00;98514.09;678143;29;1051;-65
2023/08/03 01:21:34;;;;;;;1.75;0.70;;;;;;;16.17;100.00;98512.50;678553;29;1326;-65
2023/08/03 01:21:56;;;;;;;2.08;0.90;;;;;;;16.15;100.00;98505.63;679960;29;4567;-64
2023/08/03 01:22:17;;;;;;;1.90;0.80;;;;;;;16.16;100.00;98512.59;677902;29;1574;-65
2023/08/03 01:22:44;;;;;;;1.05;0.70;;;;;;;16.27;100.00;98507.50;679265;29;1234;-65
2023/08/03 01:23:05;;;;;;;2.60;0.70;;;;;;;16.30;100.00;98512.56;678344;29;1739;-66
2023/08/03 01:23:25;;;;;;;1.92;0.70;;;;;;;16.26;100.00;98516.34;676778;29;789;-66
2023/08/03 01:23:46;;;;;;;2.67;0.90;;;;;;;16.25;100.00;98517.28;677355;29;1596;-66
2023/08/03 01:24:07;;;;;;;3.10;0.80;;;;;;;16.29;100.00;98518.78;676090;29;1756;-67
2023/08/03 01:24:29;;;;;;;3.25;1.02;;;;;;;16.30;100.00;98514.38;678099;29;1201;-65
2023/08/03 01:24:49;;;;;;;2.15;1.02;;;;;;;16.27;100.00;98525.97;679032;28;4361;-65
2023/08/03 01:25:11;;;;;;;1.30;0.80;;;;;;;16.31;100.00;98519.56;679106;29;1381;-65
2023/08/03 01:25:35;;;;;;;1.38;0.70;;;;;;;16.22;100.00;98535.94;681859;29;1497;-65
2023/08/03 01:25:56;;;;;;;1.70;1.00;;;;;;;16.19;100.00;98528.22;678726;29;1287;-67
2023/08/03 01:26:16;;;;;;;1.80;0.90;;;;;;;16.16;100.00;98513.44;678771;29;1835;-65
2023/08/03 01:26:36;;;;;;;2.40;0.80;;;;;;;16.17;100.00;98519.53;679023;29;1049;-66
2023/08/03 01:27:01;;;;;;;2.13;0.80;;;;;;;16.09;100.00;98542.88;673431;29;1496;-63
2023/08/03 01:27:22;;;;;;;2.70;0.80;;;;;;;16.05;100.00;98523.81;670043;29;2130;-65
2023/08/03 01:27:45;;;;;;;3.58;0.82;;;;;;;16.03;100.00;98527.47;669359;29;4897;-63
2023/08/03 01:28:06;;;;;;;2.47;0.80;;;;;;;16.12;100.00;98526.91;670382;29;1840;-66
2023/08/03 01:28:26;;;;;;;2.28;0.77;;;;;;;16.07;100.00;98531.63;673166;29;1970;-66
2023/08/03 01:28:47;;;;;;;1.77;0.90;;;;;;;16.11;100.00;98531.31;671428;29;1388;-67
2023/08/03 01:29:07;;;;;;;1.37;0.60;;;;;;;16.16;100.00;98533.69;673280;29;2274;-66
2023/08/03 01:29:28;;;;;;;2.13;0.70;;;;;;;16.25;100.00;98521.72;674336;29;862;-65
2023/08/03 01:29:48;;;;;;;2.30;0.83;;;;;;;16.16;100.00;98525.78;674424;29;1191;-67
2023/08/03 01:30:09;;;;;;;2.40;0.90;;;;;;;16.14;100.00;98525.00;670889;29;2450;-67
2023/08/03 01:30:30;;;;;;;1.87;0.80;;;;;;;16.09;100.00;98537.63;674519;29;1595;-67
2023/08/03 01:30:50;;;;;;;1.30;0.80;;;;;;;16.06;100.00;98537.81;674847;29;4352;-67
2023/08/03 01:31:11;;;;;;;1.77;1.00;;;;;;;16.11;100.00;98531.31;676220;29;1153;-66
2023/08/03 01:31:33;;;;;;;3.03;1.10;;;;;;;16.13;100.00;98533.84;677296;29;1103;-66
2023/08/03 01:31:56;;;;;;;2.65;0.90;;;;;;;16.15;100.00;98537.25;674511;29;1450;-68
2023/08/03 01:32:16;;;;;;;3.05;0.98;;;;;;;16.17;100.00;98536.22;675820;29;1750;-68
2023/08/03 01:32:37;;;;;;;2.10;0.93;;;;;;;16.19;100.00;98544.03;675290;29;910;-67
2023/08/03 01:32:59;;;;;;;1.77;0.82;;;;;;;16.16;100.00;98545.06;676935;29;857;-66
2023/08/03 01:33:19;;;;;;;1.30;0.80;;;;;;;16.04;100.00;98545.81;676027;29;2428;-70
2023/08/03 01:33:40;;;;;;;2.42;0.88;;;;;;;15.92;100.00;98539.53;677746;29;799;-62
2023/08/03 01:34:01;;;;;;;2.13;0.70;;;;;;;15.94;100.00;98542.91;677907;29;4387;-66
2023/08/03 01:34:21;;;;;;;1.63;0.70;;;;;;;15.88;100.00;98540.66;680755;29;1458;-67
2023/08/03 01:34:42;;;;;;;1.97;0.70;;;;;;;15.95;100.00;98547.25;677855;29;1597;-67
2023/08/03 01:35:02;;;;;;;1.90;0.80;;;;;;;15.98;100.00;98544.41;677625;29;1469;-67
2023/08/03 01:35:23;;;;;;;2.40;0.80;;;;;;;16.07;100.00;98539.53;678080;29;1717;-65
2023/08/03 01:35:44;;;;;;;2.63;0.90;;;;;;;16.08;100.00;98547.31;678641;29;924;-66
2023/08/03 01:36:05;;;;;;;1.90;0.82;;;;;;;16.07;100.00;98544.78;675790;29;2474;-66
2023/08/03 01:36:26;;;;;;;1.77;0.80;;;;;;;16.10;100.00;98539.31;674542;29;695;-66
2023/08/03 01:36:46;;;;;;;2.50;1.10;;;;;;;16.11;100.00;98552.41;675958;29;4432;-67
2023/08/03 01:37:06;;;;;;;2.33;0.90;;;;;;;16.05;100.00;98547.53;674025;29;1912;-66
2023/08/03 01:37:27;;;;;;;2.80;0.93;;;;;;;15.94;100.00;98540.25;678189;29;1618;-67
2023/08/03 01:37:50;;;;;;;2.65;0.88;;;;;;;15.93;100.00;98554.38;678007;29;1482;-66
2023/08/03 01:38:12;;;;;;;2.78;0.90;;;;;;;15.91;100.00;98551.00;676269;29;1405;-67
2023/08/03 01:38:33;;;;;;;2.55;0.90;;;;;;;15.86;100.00;98552.22;679853;29;1020;-66
2023/08/03 01:38:57;;;;;;;3.23;1.00;;;;;;;15.80;100.00;98548.16;677137;29;5612;-68
2023/08/03 01:39:17;;;;;;;1.75;0.85;;;;;;;15.78;100.00;98552.63;675404;29;2281;-68
2023/08/03 01:39:43;;;;;;;2.22;0.90;;;;;;;15.83;100.00;98558.50;677248;29;1448;-68